article atm-icon bar bell bio cancel-o cancel ch-icon crisis-color crisis cs-icon doc-icon down-angle down-arrow-o down-triangle download email-small email external facebook googleplus hamburger image-icon info-o info instagram left-angle-o left-angle left-arrow-2 left-arrow linkedin loader menu minus-o pdf-icon pencil photography pinterest play-icon plus-o press right-angle-o right-angle right-arrow-o right-arrow right-diag-arrow rss search tags time twitter up-arrow-o videos

Suggested Content

Media Center

STAFF EXPERTS

Christine Squires, Americares President and CEO

Christine Squires

President and Chief Executive Officer

Julie Varughese MD

Dr. Julie Varughese

Chief Medical Officer and Technical Unit Vice President

Cora Nally Director, International Emergency Response

Cora Nally

Director, International Emergency Response

Kristin Stevens

Director, Climate and Disaster Resilience

Adam Keehn

Adam Keehn

Director, Complex Emergencies

Karen Gottlieb, Americares Free Clinics

Karen Gottlieb

Executive Director, Americares Free Clinics

Americares Deputy Medical Officer Dr. Sadhana Rajamoorthi

Dr. Sadhana Rajamoorthi

Deputy Medical Officer

Mariel Fonteyn

Mariel Fonteyn

Director, U.S. Emergency Response

AMERICARES PRESS RELEASES

Our most recent press releases are on the Americares website HERE.

TitleDate
Responding to Hurricane Ian: A Partner Story of Mobile Health Care in a Disaster2022/11/022022-11-02 16:08:46
Refugees from Ukraine Find Safety and Feel Loss2022/03/212022-03-21 09:11:23
A Voice from Haiti in an Earthquake2022/03/082022-03-08 10:28:47
The COVID-19 Pandemic, a Personal and Organizational View2022/03/072022-03-07 15:25:31
Supply Chain Challenges and Solutions: How Americares Keeps Moving2021/12/082021-12-08 11:06:39
Shirley Roberts2021/08/132021-08-13 14:52:51
Luz Rivera2021/08/132021-08-13 14:50:23
Linda Venzke2021/08/132021-08-13 14:47:09
Keenan Rosado2021/08/132021-08-13 14:28:35
Halloween Safety Rules for Ghouls2020/10/282020-10-28 16:57:15
Yanique Hernandez, Dominican Republic2020/09/032020-09-03 00:59:14
Bill Dean, Liberia2020/08/122020-08-12 00:43:16
Nizamuddin Abdul Karim Sheikh, India2020/08/122020-08-12 00:31:36
Noelle Ahn, Orange, CA2020/08/072020-08-07 10:46:37
Nilda I. Soto, MD, Homestead, FLA2020/08/072020-08-07 10:37:54
María Benita de la Cruz, M.D, Philippines2020/08/072020-08-07 10:34:48
Juan Salinas, Las Vegas, NV2020/08/072020-08-07 10:32:19
Josefina Clarivel Manzueta, BSN, RN, Tacoma, WA2020/08/072020-08-07 09:58:15
Jordan R. Murphy, PhD, RN, Atlanta, GA2020/08/072020-08-07 09:54:06
Jerrica Kallio FNP-BC, CPNP-PC, Atlanta, GA2020/08/072020-08-07 09:52:16
Jeannette Aird, Phoenix, AZ2020/08/072020-08-07 09:51:22
Aaron Broomall, Florence, KY2020/08/072020-08-07 02:25:38
The Health Toll of Racism2020/06/022020-06-02 14:47:34
Gopal Aryal, Nepal2020/05/122020-05-12 00:35:50
Cathy Hanson-Heath, New York, El Salvador2020/02/122020-02-12 00:38:45
Yes, There Will Be Major Setbacks. Count Us In.2019/09/042019-09-04 16:02:58
Paragraph test2019/08/212019-08-21 17:32:31
Test Post2019/08/132019-08-13 20:26:50
Hello world!2019/05/082019-05-08 01:38:14
This is Breaking My Heart2019/04/112019-04-11 00:00:00
What Venezuela Needs2019/02/232019-02-23 00:00:00
Will You Try My New Year’s Resolutions?2019/01/162019-01-16 00:00:00
Help the Helper: Building Mental Health and Psychosocial Capacity2019/01/142019-01-14 00:00:00
This Award is Better Than an Oscar2019/01/032019-01-03 00:00:00
The Day I Met President George H.W. Bush2018/12/052018-12-05 00:00:00
How Do You Say Thanks?2018/11/212018-11-21 00:00:00
Who’ll Write Me a $1 Million Check?2018/11/162018-11-16 00:00:00
Who Has the Power to Change This?2018/11/132018-11-13 00:00:00
A President, an Actor and an Idea That Can Change the World2018/11/102018-11-10 00:00:00
I’m Taking These Midterm Elections Personally2018/11/042018-11-04 00:00:00
Move Over, Spiderman!2018/10/292018-10-29 00:00:00
Hard Work, No Pay: Would You Sign Up?2018/10/252018-10-25 00:00:00
I’m Michael, But I’m Not That Michael2018/10/172018-10-17 00:00:00
What You Can Find at the Center of a Crisis2018/09/272018-09-27 00:00:00
It Happened 40 Years Ago and Is Saving Lives Today2018/09/192018-09-19 00:00:00
Where I Find the Good2018/09/112018-09-11 00:00:00
What Keeps Kids in School2018/09/052018-09-05 00:00:00
Darkness or Light? Here’s What I See2018/09/012018-09-01 00:00:00
Haters Gonna Hate…Disasters2018/08/272018-08-27 00:00:00
Hurricane Harvey: Stand Up, Step Forward2018/08/202018-08-20 00:00:00
What We Need to Know to Grow2018/08/032018-08-03 00:00:00
Drill Baby, Drill2018/07/262018-07-26 00:00:00
Tempted to Make This Mistake? You’ll Regret It2018/07/192018-07-19 00:00:00
Venezuela: Unprecedented. Man-made. Humanitarian Crisis.2018/07/132018-07-13 00:00:00
Do You Love Your Town?2018/07/042018-07-04 00:00:00
Hey Baby, What’s Your Number?2018/06/282018-06-28 00:00:00
Where Children Belong2018/06/212018-06-21 00:00:00
What’s Dad Got To Do With It?2018/06/142018-06-14 00:00:00
Actor and Director Tony Goldwyn Said …2018/06/072018-06-07 00:00:00
What Really Kills People After a Hurricane2018/05/312018-05-31 00:00:00
Partnering for Innovation in Chicago2018/05/292018-05-29 00:00:00
You Know It, I Know It — So Let’s Do What Works2018/05/252018-05-25 00:00:00
Take Care of Each Other2018/05/172018-05-17 00:00:00
Saving Lives by Taking to the Airwaves in Rural Liberia2018/04/242018-04-24 00:00:00
The Ultimate “Time Share”: 62 Million People Can’t Be Wrong2018/04/182018-04-18 00:00:00
Beyond the Stars: How to Find Great Charities2018/04/122018-04-12 00:00:00
Fixing the Disaster Damage You Cannot See2018/04/112018-04-11 00:00:00
Faith in Action2018/03/292018-03-29 00:00:00
Rural Health Workers Haven’t Lost Hope. Nor Should We.2018/03/232018-03-23 00:00:00
Powerless, Puerto Rico Inches Toward Recovery2018/03/082018-03-08 00:00:00
Hand the Talking Stick to the Kids2018/02/262018-02-26 00:00:00
Stopping the Next Pandemic Starts Now2018/02/122018-02-12 00:00:00
The “Cryptovortex” Millions Need for Better Health2018/01/232018-01-23 00:00:00
Ending TPS Will Magnify Poverty, Desperation in El Salvador2018/01/122018-01-12 00:00:00
Perspective from Personal Crisis2018/01/082018-01-08 00:00:00
A Health Perspective from Liberia: Part 32017/10/112017-10-11 00:00:00
“There is always more goodness …”2017/10/032017-10-03 00:00:00
A Health Perspective from Liberia: Part 22017/09/042017-09-04 00:00:00
Stranded in a Catastrophe: Thoughts on Hurricane Harvey2017/08/292017-08-29 00:00:00
A Health Perspective from Liberia: Part 12017/08/232017-08-23 00:00:00
ACA Overhaul Must Increase Access for Uninsured2017/02/142017-02-14 00:00:00
Our Nation’s Compassionate History: Don’t Stop Now2017/02/032017-02-03 00:00:00
Louisiana Flooding: Emergency Response Update From the Field2016/08/302016-08-30 00:00:00
Zika QA with Dr. Julie Varughese, Americares Chief Medical Officer2016/08/082016-08-08 00:00:00
Continuing to Help Earthquake Survivors in Ecuador2016/07/192016-07-19 00:00:00
Why 107 Hot Showers Matter2016/06/242016-06-24 00:00:00
How a New Partnership for Health Began in a Sports Stadium in St. Lucia2016/05/102016-05-10 00:00:00
In the Midst of Destruction in Ecuador, a Special Day for Kids to be Kids, for Families to Find a Little Hope2016/05/062016-05-06 00:00:00
Walking Down a Street in Ecuador, Seeing the Earthquake Devastation up Close2016/04/272016-04-27 00:00:00
Providing Behavioral Health Care in a Primary Care Setting2016/04/012016-04-01 00:00:00
When a 10-Minute Drive is an Ocean Away2016/03/212016-03-21 00:00:00
Protecting the Health of Women and Girls in Crisis Zones2016/03/072016-03-07 00:00:00
Meeting the Growing Need for Affordable Dental Care2015/11/052015-11-05 00:00:00
How Hurricane Katrina Inspired a Career and Built a Network2015/09/272015-09-27 00:00:00
Building Sustainable Disaster Recovery Programs for the Long Term in Japan2015/09/012015-09-01 00:00:00
“Do You Have Any Questions For Me?”2015/08/042015-08-04 00:00:00
Innovative Care Delivery: A Charitable Health Center and Pharmacy Tale2015/07/032015-07-03 00:00:00
When the Rains Come, What Happens Then?2015/06/052015-06-05 00:00:00
The Consequences of Survival2015/06/012015-06-01 00:00:00
The Critical Need for Safe Shelter and Temporary Health Care Facilities2015/05/272015-05-27 00:00:00
Day 4: The First to Bring Relief for Survivors2015/05/222015-05-22 00:00:00
Day 9 in Nepal: Medical Needs We Are Seeing Now2015/05/052015-05-05 00:00:00
Critical Infrastructure Investments after a Disaster Help Communities Heal and Grow2014/12/232014-12-23 00:00:00
Working as a Team in the Ebola Hot Zone2014/12/182014-12-18 00:00:00
A Garden of Flowers in the Season of Ebola2014/12/152014-12-15 00:00:00
Investments in Preparedness Post-Hurricane Sandy Pay Dividends in Record Snow Storms in Buffalo2014/11/262014-11-26 00:00:00
Seeing Ebola from the Epicenter of the Outbreak in Monrovia, Liberia2014/10/212014-10-21 00:00:00
Ebola Heightens Health Worker Crisis2014/09/082014-09-08 00:00:00
Restoring Health in the Philippines2014/05/092014-05-09 00:00:00
In the Philippines: Listening to Haiyan Survivors2014/01/302014-01-30 00:00:00
A Brighter Day for a Hard-Hit Village2014/01/282014-01-28 00:00:00
Haiti, 4 Years Later: Our Team Reflects2014/01/232014-01-23 00:00:00
Intensive Care in Uzbekistan2013/12/092013-12-09 00:00:00
Improving Health in Rural El Salvador2013/12/092013-12-09 00:00:00
Estelita: A remarkable woman after the ‘wind and water’2013/11/202013-11-20 00:00:00
Diving Back Into the Storm: From Victim to Volunteer2013/10/282013-10-28 00:00:00
Urgent Needs Remain for Uttarakhand Flood Survivors2013/07/222013-07-22 00:00:00
On the Ground in Moore, Oklahoma2013/07/192013-07-19 00:00:00
Meeting Health Care Needs in Moore, Oklahoma2013/05/132013-05-13 00:00:00
In Japan: Group Home Momiji Opens2013/03/192013-03-19 00:00:00
Restoring Health Care in the Rockaways2013/02/142013-02-14 00:00:00
Pakistan Flood Response: Our Impact in Sindh2013/01/162013-01-16 00:00:00
Progress and Need: Visiting Health Centers in Haiti2013/01/072013-01-07 00:00:00
Helping Staten Island Communities Recover2012/12/072012-12-07 00:00:00
A Holiday Break from the Long Road Ahead2012/11/292012-11-29 00:00:00
Meeting Heroic Doctors in Coney Island2012/11/212012-11-21 00:00:00
“Muck-Out” Sunday in the Rockaways2012/11/152012-11-15 00:00:00
From Manhattan to Rockaway: A Journey of Hope2012/11/142012-11-14 00:00:00
Superstorm Sandy Field Notes | Part 22012/11/082012-11-08 00:00:00
Superstorm Sandy Field Notes2012/11/052012-11-05 00:00:00
Getting Ready for Hurricane Season Here at Home2012/07/232012-07-23 00:00:00
Helping Survivors Cope with Many Forms of Loss2012/06/272012-06-27 00:00:00
From my small plane window2012/06/252012-06-25 00:00:00
What you lose when you lose everything2012/05/212012-05-21 00:00:00
Filling Health Care Gaps in the Wake of Disaster2012/04/262012-04-26 00:00:00
Artifacts of Lives2012/03/102012-03-10 00:00:00
“Thank you for coming here from America.”2012/03/022012-03-02 00:00:00
AmeriCares Dynamic Duo in Sendai2012/03/022012-03-02 00:00:00
Medical Camp Helps Families in Crisis2012/02/092012-02-09 00:00:00
One Family’s Crisis in the Aftermath of 2011 Floods2012/02/092012-02-09 00:00:00
“All had lost their homes — and all had lived in the same community their entire lives.”2012/01/192012-01-19 00:00:00
“In addition to radiation fears, livelihoods are a prime concern.”2012/01/182012-01-18 00:00:00
AmeriCares Supports 100+ Hospitals and Clinics in Haiti2012/01/042012-01-04 00:00:00

Click here to see our press release archives

DOWNLOADABLE MEDIA

Photography

Malawi

Access to Medicine

Photo by Alejandro Granadillo

Emergency Response

Distribution Center

Patient Care

B-Roll

Hurricane Ian Response B-Roll

Airlift 2022

Airlift Benefit 2022 B-Roll

Ukraine Shipment B-Roll

Kentucky Flooding B-Roll

Hurricane B-Roll

Hurricane Season Preparation B-Roll

Ukraine Press Conference

Download Distribution center B-Roll

Americares Distribution Center B-Roll

Download Patient Care B-Roll

Americares Patient Care B-Roll

BRANDING

Brand Guidelines

Logos

The Americares logo includes the brand name and logo, and any word, phrase, image, or other designation that identifies the source or origin of any of Americares programs.

For brand recognition, it is critical that the logotype be implemented consistently across all platforms as defined in the brand guide. In the downloads we include both full color and monochrome-only uses for higher readability under technical constraints.

americares logo

Horizontal Lockup

americares logo

Vertical Lockup

FACT SHEET

Download our fact sheet for a quick overview of Americares

Media Contacts

If you have media inquiries and interview requests, please contact us.


Profile Picture

Donna Porstner 
O: 203.658.9579 
dporstner@americares.org  

Profile Picture

Jacqueline Serna 
O: 203.658.9604 
jserna@americares.org